Robert L Bradshaw International, Saint Kitts and Nevis

11:36 AM AST on October 21, 2014 (GMT -0400)
Robert L Bradshaw International | Change Station
CLOSE
Current Station
Airport
Location: St. Kitts,
Elevation: 157 ft
Nearby Weather Stations

Elev 157 ft 17.30 °N, 62.68 °W | Updated 36 minutes ago

Scattered Clouds
Scattered Clouds
86 °F
Feels Like 95 °F
N
12
Wind Variable Wind from NE

Today
High -- | Low -- °F
--% Chance of Precip.
Yesterday
High -- | Low -- °F
Precip. -- in
6:05 AM 5:45 PM
Waning Crescent, 5% visible
Pressure 29.98 in
Visibility 6.2 miles
Clouds Scattered Clouds 1900 ft
Heat Index 95 °F
Dew Point 75 °F
Humidity 70%
Rainfall 0.00 in
Snow Depth Not available.
UV 11 out of 12
Pollen Not available.
Air Quality Not available.
Flu Activity Not available.
METAR TKPK 211500Z 05010KT 9999 SCT019 30/24 Q1015

More Conditions Fewer Conditions

Pressure 29.98 in
Visibility 6.2 miles
Clouds Scattered Clouds 1900 ft
Heat Index 95 °F
Dew Point 75 °F
Humidity 70%
Rainfall 0.00 in
Snow Depth Not available.
UV 11 out of 12
Pollen Not available.
Air Quality Not available.
Flu Activity Not available.
METAR TKPK 211500Z 05010KT 9999 SCT019 30/24 Q1015

More Conditions Fewer Conditions

10-Day Weather Forecast

Almanac

Astronomy

Oct. 21, 2014 Rise Set
Actual Time 6:05 AM AST 5:45 PM AST
Civil Twilight 5:43 AM AST 6:07 PM AST
Nautical Twilight 5:18 AM AST 6:32 PM AST
Astronomical Twilight 4:52 AM AST 6:57 PM AST
Moon 4:05 AM AST 4:20 PM AST
Length of Visible Light 12h 23m
Length of Day
11h 39m
Tomorrow will be 0m 54s shorter.
Waning Crescent, 5% of the Moon is Illuminated
Today
Waning Crescent
Oct 23
New
Oct 30
First Quarter
Nov 6
Full
Nov 14
Last Quarter

Today's Extremes

Country Highs Country Lows

Community

WunderPhotos

Upload Photos

1,763,697 photos uploaded!

WunderBlogs® & News

Nearby

Snow Depth

Not available.

Earthquake Activity

City Distance Mag. Time & Date
No recent earthquake activity has been reported nearby.
Minimum magnitude displayed is 2.5.

Coastal Water Temperatures

Place Temperature
No Stations Reporting

Nearby Weather Stations